Tiburon, CA (94920)

1:48 AM PDT on September 19, 2014 (GMT -0700)
Mt. Tiburon | Change Station
CLOSE
Current Station
Personal Weather Station
Location: Tiburon, CA
Elevation: 568 ft
Nearby Weather Stations

Elev 568 ft 37.89 °N, 122.46 °W | Updated 9 seconds ago

Clear
Clear
62.1 °F
Feels Like 62.1 °F
N
1.0
Wind Variable Wind from WSW
Gusts 4.0 mph

Today
High -- | Low -- °F
--% Chance of Precip.
Yesterday
High -- | Low -- °F
Precip. -- in
6:55 AM 7:11 PM
Waning Crescent, 20% visible
Pressure 29.88 in
Visibility 8.0 miles
Clouds Few 800 ft
Dew Point 62 °F
Humidity 98%
Rainfall 0.00 in
Snow Depth Not available.
UV 0 out of 12
Pollen 5.10 out of 12
PM2.5 Good
Flu Activity Not available.
METAR KOAK 190753Z 00000KT 8SM FEW008 17/15 A2988 RMK AO2 SLP119 T01670150 402560167 $

More Conditions Fewer Conditions

Pressure 29.88 in
Visibility 8.0 miles
Clouds Few 800 ft
Dew Point 62 °F
Humidity 98%
Rainfall 0.00 in
Snow Depth Not available.
UV 0 out of 12
Pollen 5.10 out of 12
PM2.5 Good
Flu Activity Not available.
METAR KOAK 190753Z 00000KT 8SM FEW008 17/15 A2988 RMK AO2 SLP119 T01670150 402560167 $

More Conditions Fewer Conditions

10-Day Weather Forecast

Almanac

Astronomy

Sep. 19, 2014 Rise Set
Actual Time 6:55 AM PDT 7:11 PM PDT
Civil Twilight 6:28 AM PDT 7:37 PM PDT
Nautical Twilight 5:58 AM PDT 8:08 PM PDT
Astronomical Twilight 5:26 AM PDT 8:39 PM PDT
Moon 2:48 AM PDT 4:40 PM PDT
Length of Visible Light 13h 08m
Length of Day
12h 16m
Tomorrow will be 2m 25s shorter.
Waning Crescent, 20% of the Moon is Illuminated
Today
Waning Crescent
Sep 24
New
Oct 1
First Quarter
Oct 8
Full
Oct 15
Last Quarter

Today's Extremes

State Highs State Lows

Community

WunderPhotos

Upload Photos

1,754,581 photos uploaded!

Nearby

Air Quality

  Air Quality AQ Index Pollutant
Yesterday Good
PM2.5
Yesterday Good
OZONE
Current Good
PM2.5
Friday Good
PM2.5
Saturday Moderate
PM2.5
Sunday Moderate
PM2.5
Monday Moderate
PM2.5
Tuesday Moderate
PM2.5

Snow Depth

Station Depth Elevation
Spratt Creek 1 in 6200 ft
Echo Peak 1 in 7800 ft
CSS Lab 1 in 6900 ft
Sonora Pass 0 in 8800 ft
Crowder Flat 0 in 5100 ft

Earthquake Activity

City Distance Mag. Time & Date
The Geysers, California 61 miles 2.5 11:29 PM PDT
2014-09-17
Cobb, California 63 miles 2.7 1:23 PM PDT
2014-09-16
Minimum magnitude displayed is 2.5.

Coastal Water Temperatures

Place Temperature
San Francisco, CA 64.9 °F
Richmond, CA 68.0 °F
Port Chicago, CA 70.0 °F

Nearby Weather Stations